sensor_id;sensor_type;location;lat;lon;timestamp;P1;durP1;ratioP1;P2;durP2;ratioP2
20142;SDS011;10509;46.476;7.134;2023-09-18T00:01:41;11.23;;;2.53;;
20142;SDS011;10509;46.476;7.134;2023-09-18T00:04:07;11.63;;;2.80;;
20142;SDS011;10509;46.476;7.134;2023-09-18T00:06:33;8.77;;;2.40;;
20142;SDS011;10509;46.476;7.134;2023-09-18T00:09:00;6.60;;;2.73;;
20142;SDS011;10509;46.476;7.134;2023-09-18T00:11:26;10.83;;;2.23;;
20142;SDS011;10509;46.476;7.134;2023-09-18T00:13:52;9.83;;;2.60;;
20142;SDS011;10509;46.476;7.134;2023-09-18T00:16:18;11.03;;;2.23;;
20142;SDS011;10509;46.476;7.134;2023-09-18T00:18:44;7.00;;;2.50;;
20142;SDS011;10509;46.476;7.134;2023-09-18T00:21:10;8.53;;;2.27;;
20142;SDS011;10509;46.476;7.134;2023-09-18T00:23:37;10.93;;;2.33;;
20142;SDS011;10509;46.476;7.134;2023-09-18T00:26:03;6.43;;;2.30;;
20142;SDS011;10509;46.476;7.134;2023-09-18T00:28:29;4.60;;;2.10;;
20142;SDS011;10509;46.476;7.134;2023-09-18T00:30:55;12.77;;;2.47;;
20142;SDS011;10509;46.476;7.134;2023-09-18T00:33:21;7.57;;;2.80;;
20142;SDS011;10509;46.476;7.134;2023-09-18T00:35:47;8.40;;;2.60;;
20142;SDS011;10509;46.476;7.134;2023-09-18T00:38:14;6.93;;;2.10;;
20142;SDS011;10509;46.476;7.134;2023-09-18T00:40:40;7.03;;;2.07;;
20142;SDS011;10509;46.476;7.134;2023-09-18T00:43:06;5.47;;;2.37;;
20142;SDS011;10509;46.476;7.134;2023-09-18T00:45:32;8.00;;;2.40;;
20142;SDS011;10509;46.476;7.134;2023-09-18T00:47:59;10.47;;;3.60;;
20142;SDS011;10509;46.476;7.134;2023-09-18T00:50:25;10.27;;;3.03;;
20142;SDS011;10509;46.476;7.134;2023-09-18T00:52:51;5.33;;;2.60;;
20142;SDS011;10509;46.476;7.134;2023-09-18T00:55:17;9.30;;;2.73;;
20142;SDS011;10509;46.476;7.134;2023-09-18T00:57:44;8.83;;;2.50;;
20142;SDS011;10509;46.476;7.134;2023-09-18T01:00:11;7.30;;;2.80;;
20142;SDS011;10509;46.476;7.134;2023-09-18T01:02:41;7.93;;;2.40;;
20142;SDS011;10509;46.476;7.134;2023-09-18T01:05:08;7.40;;;2.40;;
20142;SDS011;10509;46.476;7.134;2023-09-18T01:07:34;13.60;;;3.37;;
20142;SDS011;10509;46.476;7.134;2023-09-18T01:10:00;11.20;;;2.47;;
20142;SDS011;10509;46.476;7.134;2023-09-18T01:12:46;10.77;;;2.23;;
20142;SDS011;10509;46.476;7.134;2023-09-18T01:15:24;8.53;;;2.47;;
20142;SDS011;10509;46.476;7.134;2023-09-18T01:17:52;8.13;;;2.70;;
20142;SDS011;10509;46.476;7.134;2023-09-18T01:20:18;11.30;;;3.17;;
20142;SDS011;10509;46.476;7.134;2023-09-18T01:22:45;9.73;;;2.80;;
20142;SDS011;10509;46.476;7.134;2023-09-18T01:25:11;9.77;;;3.00;;
20142;SDS011;10509;46.476;7.134;2023-09-18T01:27:37;8.63;;;2.37;;
20142;SDS011;10509;46.476;7.134;2023-09-18T01:30:03;11.77;;;3.13;;
20142;SDS011;10509;46.476;7.134;2023-09-18T01:32:30;10.53;;;3.10;;
20142;SDS011;10509;46.476;7.134;2023-09-18T01:34:57;6.17;;;2.60;;
20142;SDS011;10509;46.476;7.134;2023-09-18T01:37:29;8.53;;;2.57;;
20142;SDS011;10509;46.476;7.134;2023-09-18T01:39:56;8.33;;;2.47;;
20142;SDS011;10509;46.476;7.134;2023-09-18T01:42:26;9.13;;;2.57;;
20142;SDS011;10509;46.476;7.134;2023-09-18T01:44:53;9.97;;;2.50;;
20142;SDS011;10509;46.476;7.134;2023-09-18T01:47:20;8.13;;;2.97;;
20142;SDS011;10509;46.476;7.134;2023-09-18T01:49:48;9.63;;;3.07;;
20142;SDS011;10509;46.476;7.134;2023-09-18T01:52:14;11.33;;;3.10;;
20142;SDS011;10509;46.476;7.134;2023-09-18T01:54:41;8.63;;;2.43;;
20142;SDS011;10509;46.476;7.134;2023-09-18T01:57:07;11.43;;;2.80;;
20142;SDS011;10509;46.476;7.134;2023-09-18T01:59:33;9.07;;;2.83;;
20142;SDS011;10509;46.476;7.134;2023-09-18T02:01:59;8.50;;;2.83;;
20142;SDS011;10509;46.476;7.134;2023-09-18T02:04:28;15.60;;;3.03;;
20142;SDS011;10509;46.476;7.134;2023-09-18T02:06:55;11.47;;;3.00;;
20142;SDS011;10509;46.476;7.134;2023-09-18T02:09:22;11.03;;;3.07;;
20142;SDS011;10509;46.476;7.134;2023-09-18T02:11:48;11.47;;;3.13;;
20142;SDS011;10509;46.476;7.134;2023-09-18T02:14:14;9.97;;;2.93;;
20142;SDS011;10509;46.476;7.134;2023-09-18T02:16:41;14.03;;;3.37;;
20142;SDS011;10509;46.476;7.134;2023-09-18T02:19:11;8.57;;;3.07;;
20142;SDS011;10509;46.476;7.134;2023-09-18T02:21:38;9.87;;;3.03;;
20142;SDS011;10509;46.476;7.134;2023-09-18T02:24:05;13.60;;;3.17;;
20142;SDS011;10509;46.476;7.134;2023-09-18T02:26:31;15.80;;;3.30;;
20142;SDS011;10509;46.476;7.134;2023-09-18T02:28:58;12.23;;;3.40;;
20142;SDS011;10509;46.476;7.134;2023-09-18T02:31:25;10.57;;;3.43;;
20142;SDS011;10509;46.476;7.134;2023-09-18T02:33:50;10.17;;;2.60;;
20142;SDS011;10509;46.476;7.134;2023-09-18T02:36:16;5.70;;;2.60;;
20142;SDS011;10509;46.476;7.134;2023-09-18T02:38:42;10.13;;;2.80;;
20142;SDS011;10509;46.476;7.134;2023-09-18T02:41:09;9.53;;;3.23;;
20142;SDS011;10509;46.476;7.134;2023-09-18T02:43:35;10.03;;;3.00;;
20142;SDS011;10509;46.476;7.134;2023-09-18T02:46:02;6.13;;;2.70;;
20142;SDS011;10509;46.476;7.134;2023-09-18T02:48:29;10.33;;;3.43;;
20142;SDS011;10509;46.476;7.134;2023-09-18T02:50:55;10.60;;;3.43;;
20142;SDS011;10509;46.476;7.134;2023-09-18T02:53:22;10.33;;;2.83;;
20142;SDS011;10509;46.476;7.134;2023-09-18T02:55:49;11.30;;;3.37;;
20142;SDS011;10509;46.476;7.134;2023-09-18T02:58:16;5.77;;;2.77;;
20142;SDS011;10509;46.476;7.134;2023-09-18T03:00:42;10.97;;;3.33;;
20142;SDS011;10509;46.476;7.134;2023-09-18T03:03:08;13.57;;;3.53;;
20142;SDS011;10509;46.476;7.134;2023-09-18T03:05:35;12.57;;;3.10;;
20142;SDS011;10509;46.476;7.134;2023-09-18T03:08:01;10.50;;;2.83;;
20142;SDS011;10509;46.476;7.134;2023-09-18T03:10:27;8.83;;;3.37;;
20142;SDS011;10509;46.476;7.134;2023-09-18T03:12:53;12.30;;;3.10;;
20142;SDS011;10509;46.476;7.134;2023-09-18T03:15:19;10.57;;;3.13;;
20142;SDS011;10509;46.476;7.134;2023-09-18T03:17:45;16.87;;;3.37;;
20142;SDS011;10509;46.476;7.134;2023-09-18T03:20:11;11.93;;;3.60;;
20142;SDS011;10509;46.476;7.134;2023-09-18T03:22:37;10.50;;;3.47;;
20142;SDS011;10509;46.476;7.134;2023-09-18T03:25:03;9.63;;;2.87;;
20142;SDS011;10509;46.476;7.134;2023-09-18T03:27:29;11.33;;;3.10;;
20142;SDS011;10509;46.476;7.134;2023-09-18T03:29:56;16.23;;;2.90;;
20142;SDS011;10509;46.476;7.134;2023-09-18T03:32:22;12.13;;;3.67;;
20142;SDS011;10509;46.476;7.134;2023-09-18T03:34:52;8.83;;;3.43;;
20142;SDS011;10509;46.476;7.134;2023-09-18T03:37:18;7.53;;;3.10;;
20142;SDS011;10509;46.476;7.134;2023-09-18T03:39:44;10.10;;;3.20;;
20142;SDS011;10509;46.476;7.134;2023-09-18T03:42:10;8.67;;;3.50;;
20142;SDS011;10509;46.476;7.134;2023-09-18T03:44:36;12.10;;;3.17;;
20142;SDS011;10509;46.476;7.134;2023-09-18T03:47:02;18.33;;;4.00;;
20142;SDS011;10509;46.476;7.134;2023-09-18T03:49:29;8.37;;;3.40;;
20142;SDS011;10509;46.476;7.134;2023-09-18T03:51:55;8.07;;;2.90;;
20142;SDS011;10509;46.476;7.134;2023-09-18T03:54:21;16.93;;;3.67;;
20142;SDS011;10509;46.476;7.134;2023-09-18T03:56:47;14.70;;;3.97;;
20142;SDS011;10509;46.476;7.134;2023-09-18T03:59:13;11.03;;;3.87;;
20142;SDS011;10509;46.476;7.134;2023-09-18T04:01:39;15.87;;;3.90;;
20142;SDS011;10509;46.476;7.134;2023-09-18T04:04:05;14.67;;;3.40;;
20142;SDS011;10509;46.476;7.134;2023-09-18T04:06:41;10.13;;;3.53;;
20142;SDS011;10509;46.476;7.134;2023-09-18T04:09:07;11.30;;;3.40;;
20142;SDS011;10509;46.476;7.134;2023-09-18T04:11:33;16.60;;;3.37;;
20142;SDS011;10509;46.476;7.134;2023-09-18T04:14:00;16.63;;;3.30;;
20142;SDS011;10509;46.476;7.134;2023-09-18T04:16:26;21.20;;;4.43;;
20142;SDS011;10509;46.476;7.134;2023-09-18T04:19:04;11.97;;;3.33;;
20142;SDS011;10509;46.476;7.134;2023-09-18T04:21:30;9.13;;;3.40;;
20142;SDS011;10509;46.476;7.134;2023-09-18T04:23:56;15.07;;;3.53;;
20142;SDS011;10509;46.476;7.134;2023-09-18T04:26:26;10.87;;;3.40;;
20142;SDS011;10509;46.476;7.134;2023-09-18T04:28:56;13.67;;;3.40;;
20142;SDS011;10509;46.476;7.134;2023-09-18T04:31:22;12.20;;;3.30;;
20142;SDS011;10509;46.476;7.134;2023-09-18T04:33:48;14.40;;;3.10;;
20142;SDS011;10509;46.476;7.134;2023-09-18T04:36:14;13.13;;;3.57;;
20142;SDS011;10509;46.476;7.134;2023-09-18T04:38:40;13.10;;;3.30;;
20142;SDS011;10509;46.476;7.134;2023-09-18T04:41:06;11.20;;;3.40;;
20142;SDS011;10509;46.476;7.134;2023-09-18T04:43:34;8.80;;;3.23;;
20142;SDS011;10509;46.476;7.134;2023-09-18T04:46:00;11.30;;;3.73;;
20142;SDS011;10509;46.476;7.134;2023-09-18T04:48:29;10.30;;;2.97;;
20142;SDS011;10509;46.476;7.134;2023-09-18T04:50:55;11.33;;;3.87;;
20142;SDS011;10509;46.476;7.134;2023-09-18T04:53:21;9.10;;;3.60;;
20142;SDS011;10509;46.476;7.134;2023-09-18T04:55:47;13.27;;;3.27;;
20142;SDS011;10509;46.476;7.134;2023-09-18T04:58:14;11.40;;;3.37;;
20142;SDS011;10509;46.476;7.134;2023-09-18T05:00:40;10.50;;;3.70;;
20142;SDS011;10509;46.476;7.134;2023-09-18T05:03:07;7.90;;;3.43;;
20142;SDS011;10509;46.476;7.134;2023-09-18T05:05:33;10.77;;;3.47;;
20142;SDS011;10509;46.476;7.134;2023-09-18T05:08:01;12.23;;;4.00;;
20142;SDS011;10509;46.476;7.134;2023-09-18T05:10:28;8.63;;;3.63;;
20142;SDS011;10509;46.476;7.134;2023-09-18T05:12:54;12.47;;;3.50;;
20142;SDS011;10509;46.476;7.134;2023-09-18T05:15:24;10.80;;;3.60;;
20142;SDS011;10509;46.476;7.134;2023-09-18T05:17:51;11.50;;;3.57;;
20142;SDS011;10509;46.476;7.134;2023-09-18T05:20:22;8.67;;;2.97;;
20142;SDS011;10509;46.476;7.134;2023-09-18T05:22:49;11.33;;;3.07;;
20142;SDS011;10509;46.476;7.134;2023-09-18T05:25:15;11.43;;;3.87;;
20142;SDS011;10509;46.476;7.134;2023-09-18T05:27:42;16.80;;;4.13;;
20142;SDS011;10509;46.476;7.134;2023-09-18T05:30:13;10.53;;;3.53;;
20142;SDS011;10509;46.476;7.134;2023-09-18T05:32:41;17.67;;;4.13;;
20142;SDS011;10509;46.476;7.134;2023-09-18T05:35:07;13.73;;;3.30;;
20142;SDS011;10509;46.476;7.134;2023-09-18T05:37:35;9.17;;;3.27;;
20142;SDS011;10509;46.476;7.134;2023-09-18T05:40:03;13.00;;;3.17;;
20142;SDS011;10509;46.476;7.134;2023-09-18T05:42:30;13.10;;;3.50;;
20142;SDS011;10509;46.476;7.134;2023-09-18T05:44:56;11.53;;;3.93;;
20142;SDS011;10509;46.476;7.134;2023-09-18T05:47:22;9.90;;;3.70;;
20142;SDS011;10509;46.476;7.134;2023-09-18T05:49:48;15.37;;;3.57;;
20142;SDS011;10509;46.476;7.134;2023-09-18T05:52:14;11.03;;;3.77;;
20142;SDS011;10509;46.476;7.134;2023-09-18T05:54:40;11.20;;;3.80;;
20142;SDS011;10509;46.476;7.134;2023-09-18T05:57:06;11.00;;;3.50;;
20142;SDS011;10509;46.476;7.134;2023-09-18T05:59:32;10.77;;;3.30;;
20142;SDS011;10509;46.476;7.134;2023-09-18T06:01:58;16.17;;;3.93;;
20142;SDS011;10509;46.476;7.134;2023-09-18T06:04:24;15.17;;;3.20;;
20142;SDS011;10509;46.476;7.134;2023-09-18T06:06:50;14.13;;;3.53;;
20142;SDS011;10509;46.476;7.134;2023-09-18T06:09:16;10.27;;;3.87;;
20142;SDS011;10509;46.476;7.134;2023-09-18T06:11:43;17.00;;;3.67;;
20142;SDS011;10509;46.476;7.134;2023-09-18T06:14:09;9.57;;;3.40;;
20142;SDS011;10509;46.476;7.134;2023-09-18T06:16:36;11.97;;;3.23;;
20142;SDS011;10509;46.476;7.134;2023-09-18T06:19:02;9.57;;;2.93;;
20142;SDS011;10509;46.476;7.134;2023-09-18T06:21:28;13.27;;;2.83;;
20142;SDS011;10509;46.476;7.134;2023-09-18T06:23:54;17.87;;;2.70;;
20142;SDS011;10509;46.476;7.134;2023-09-18T06:26:20;7.63;;;2.00;;
20142;SDS011;10509;46.476;7.134;2023-09-18T06:28:46;2.27;;;0.80;;
20142;SDS011;10509;46.476;7.134;2023-09-18T06:31:12;1.93;;;0.60;;
20142;SDS011;10509;46.476;7.134;2023-09-18T06:33:39;3.97;;;0.80;;
20142;SDS011;10509;46.476;7.134;2023-09-18T06:36:05;3.10;;;1.43;;
20142;SDS011;10509;46.476;7.134;2023-09-18T06:38:31;3.50;;;1.40;;
20142;SDS011;10509;46.476;7.134;2023-09-18T06:40:57;4.47;;;1.37;;
20142;SDS011;10509;46.476;7.134;2023-09-18T06:43:23;3.23;;;1.40;;
20142;SDS011;10509;46.476;7.134;2023-09-18T06:45:49;5.67;;;1.50;;
20142;SDS011;10509;46.476;7.134;2023-09-18T06:48:15;3.37;;;1.57;;
20142;SDS011;10509;46.476;7.134;2023-09-18T06:50:42;3.77;;;1.40;;
20142;SDS011;10509;46.476;7.134;2023-09-18T06:53:08;7.57;;;1.33;;
20142;SDS011;10509;46.476;7.134;2023-09-18T06:55:35;3.93;;;1.00;;
20142;SDS011;10509;46.476;7.134;2023-09-18T06:58:01;4.03;;;1.30;;
20142;SDS011;10509;46.476;7.134;2023-09-18T07:00:27;5.97;;;1.53;;
20142;SDS011;10509;46.476;7.134;2023-09-18T07:02:53;2.90;;;0.80;;
20142;SDS011;10509;46.476;7.134;2023-09-18T07:05:19;2.70;;;0.93;;
20142;SDS011;10509;46.476;7.134;2023-09-18T07:07:45;3.27;;;0.97;;
20142;SDS011;10509;46.476;7.134;2023-09-18T07:10:11;2.20;;;0.80;;
20142;SDS011;10509;46.476;7.134;2023-09-18T07:12:37;2.63;;;0.90;;
20142;SDS011;10509;46.476;7.134;2023-09-18T07:15:04;2.00;;;0.77;;
20142;SDS011;10509;46.476;7.134;2023-09-18T07:17:31;1.73;;;0.63;;
20142;SDS011;10509;46.476;7.134;2023-09-18T07:19:57;2.60;;;0.77;;
20142;SDS011;10509;46.476;7.134;2023-09-18T07:22:24;2.03;;;0.90;;
20142;SDS011;10509;46.476;7.134;2023-09-18T07:24:50;2.50;;;1.00;;
20142;SDS011;10509;46.476;7.134;2023-09-18T07:27:16;2.93;;;1.30;;
20142;SDS011;10509;46.476;7.134;2023-09-18T07:29:42;3.70;;;1.60;;
20142;SDS011;10509;46.476;7.134;2023-09-18T07:32:08;3.77;;;1.20;;
20142;SDS011;10509;46.476;7.134;2023-09-18T07:34:34;4.13;;;1.00;;
20142;SDS011;10509;46.476;7.134;2023-09-18T07:37:00;2.83;;;1.77;;
20142;SDS011;10509;46.476;7.134;2023-09-18T07:39:26;3.23;;;1.10;;
20142;SDS011;10509;46.476;7.134;2023-09-18T07:41:52;4.50;;;0.97;;
20142;SDS011;10509;46.476;7.134;2023-09-18T07:44:21;2.63;;;0.80;;
20142;SDS011;10509;46.476;7.134;2023-09-18T07:46:47;2.90;;;0.90;;
20142;SDS011;10509;46.476;7.134;2023-09-18T07:49:13;3.20;;;1.27;;
20142;SDS011;10509;46.476;7.134;2023-09-18T07:51:39;3.00;;;1.07;;
20142;SDS011;10509;46.476;7.134;2023-09-18T07:54:06;2.13;;;0.93;;
20142;SDS011;10509;46.476;7.134;2023-09-18T07:56:33;3.57;;;1.23;;
20142;SDS011;10509;46.476;7.134;2023-09-18T07:58:59;1.23;;;0.70;;
20142;SDS011;10509;46.476;7.134;2023-09-18T08:01:26;2.23;;;0.80;;
20142;SDS011;10509;46.476;7.134;2023-09-18T08:03:52;1.33;;;0.63;;
20142;SDS011;10509;46.476;7.134;2023-09-18T08:06:18;1.73;;;0.60;;
20142;SDS011;10509;46.476;7.134;2023-09-18T08:08:45;2.73;;;0.60;;
20142;SDS011;10509;46.476;7.134;2023-09-18T08:11:11;0.80;;;0.50;;
20142;SDS011;10509;46.476;7.134;2023-09-18T08:13:37;2.07;;;0.60;;
20142;SDS011;10509;46.476;7.134;2023-09-18T08:16:07;2.93;;;0.80;;
20142;SDS011;10509;46.476;7.134;2023-09-18T08:18:33;2.03;;;0.40;;
20142;SDS011;10509;46.476;7.134;2023-09-18T08:20:59;3.27;;;0.77;;
20142;SDS011;10509;46.476;7.134;2023-09-18T08:23:25;1.60;;;0.70;;
20142;SDS011;10509;46.476;7.134;2023-09-18T08:25:51;1.80;;;0.60;;
20142;SDS011;10509;46.476;7.134;2023-09-18T08:28:21;1.03;;;0.40;;
20142;SDS011;10509;46.476;7.134;2023-09-18T08:30:47;1.40;;;0.50;;
20142;SDS011;10509;46.476;7.134;2023-09-18T08:33:13;3.10;;;0.90;;
20142;SDS011;10509;46.476;7.134;2023-09-18T08:35:39;1.77;;;0.70;;
20142;SDS011;10509;46.476;7.134;2023-09-18T08:38:05;1.90;;;0.73;;
20142;SDS011;10509;46.476;7.134;2023-09-18T08:40:32;1.70;;;0.90;;
20142;SDS011;10509;46.476;7.134;2023-09-18T08:43:00;2.10;;;0.93;;
20142;SDS011;10509;46.476;7.134;2023-09-18T08:47:54;1.67;;;0.90;;
20142;SDS011;10509;46.476;7.134;2023-09-18T08:50:21;1.33;;;0.60;;
20142;SDS011;10509;46.476;7.134;2023-09-18T08:52:47;2.33;;;0.87;;
20142;SDS011;10509;46.476;7.134;2023-09-18T08:55:15;1.77;;;0.60;;
20142;SDS011;10509;46.476;7.134;2023-09-18T08:57:41;1.93;;;0.60;;
20142;SDS011;10509;46.476;7.134;2023-09-18T09:00:09;1.80;;;0.83;;
20142;SDS011;10509;46.476;7.134;2023-09-18T09:02:41;1.53;;;0.50;;
20142;SDS011;10509;46.476;7.134;2023-09-18T09:05:07;1.80;;;0.60;;
20142;SDS011;10509;46.476;7.134;2023-09-18T09:07:33;1.63;;;0.70;;
20142;SDS011;10509;46.476;7.134;2023-09-18T09:09:59;1.57;;;0.63;;
20142;SDS011;10509;46.476;7.134;2023-09-18T09:15:10;1.87;;;0.63;;
20142;SDS011;10509;46.476;7.134;2023-09-18T09:17:36;2.80;;;0.90;;
20142;SDS011;10509;46.476;7.134;2023-09-18T09:20:12;1.53;;;0.50;;
20142;SDS011;10509;46.476;7.134;2023-09-18T09:22:38;1.30;;;0.67;;
20142;SDS011;10509;46.476;7.134;2023-09-18T09:25:21;1.87;;;0.80;;
20142;SDS011;10509;46.476;7.134;2023-09-18T09:27:48;0.70;;;0.50;;
20142;SDS011;10509;46.476;7.134;2023-09-18T09:30:23;1.43;;;0.70;;
20142;SDS011;10509;46.476;7.134;2023-09-18T09:32:51;1.87;;;0.40;;
20142;SDS011;10509;46.476;7.134;2023-09-18T09:37:49;0.43;;;0.40;;
20142;SDS011;10509;46.476;7.134;2023-09-18T09:40:20;0.70;;;0.63;;
20142;SDS011;10509;46.476;7.134;2023-09-18T09:42:47;2.03;;;0.60;;
20142;SDS011;10509;46.476;7.134;2023-09-18T09:45:14;1.47;;;1.00;;
20142;SDS011;10509;46.476;7.134;2023-09-18T09:47:41;1.37;;;0.70;;
20142;SDS011;10509;46.476;7.134;2023-09-18T09:52:34;0.90;;;0.50;;
20142;SDS011;10509;46.476;7.134;2023-09-18T09:55:02;1.10;;;0.50;;
20142;SDS011;10509;46.476;7.134;2023-09-18T09:57:30;1.10;;;0.60;;
20142;SDS011;10509;46.476;7.134;2023-09-18T10:00:03;1.13;;;0.60;;
20142;SDS011;10509;46.476;7.134;2023-09-18T10:03:09;1.37;;;0.80;;
20142;SDS011;10509;46.476;7.134;2023-09-18T10:05:36;0.80;;;0.50;;
20142;SDS011;10509;46.476;7.134;2023-09-18T10:08:04;0.80;;;0.50;;
20142;SDS011;10509;46.476;7.134;2023-09-18T10:10:31;0.93;;;0.40;;
20142;SDS011;10509;46.476;7.134;2023-09-18T10:13:00;0.90;;;0.40;;
20142;SDS011;10509;46.476;7.134;2023-09-18T10:15:27;1.97;;;0.60;;
20142;SDS011;10509;46.476;7.134;2023-09-18T10:17:56;1.40;;;0.70;;
20142;SDS011;10509;46.476;7.134;2023-09-18T10:20:24;0.70;;;0.50;;
20142;SDS011;10509;46.476;7.134;2023-09-18T10:22:52;2.17;;;0.70;;
20142;SDS011;10509;46.476;7.134;2023-09-18T10:25:20;1.13;;;0.60;;
20142;SDS011;10509;46.476;7.134;2023-09-18T10:27:48;1.00;;;0.50;;
20142;SDS011;10509;46.476;7.134;2023-09-18T10:30:14;1.23;;;0.43;;
20142;SDS011;10509;46.476;7.134;2023-09-18T10:32:43;1.43;;;0.70;;
20142;SDS011;10509;46.476;7.134;2023-09-18T10:35:11;0.90;;;0.50;;
20142;SDS011;10509;46.476;7.134;2023-09-18T10:37:37;1.57;;;0.77;;
20142;SDS011;10509;46.476;7.134;2023-09-18T10:40:08;1.47;;;0.63;;
20142;SDS011;10509;46.476;7.134;2023-09-18T10:42:34;2.77;;;0.90;;
20142;SDS011;10509;46.476;7.134;2023-09-18T10:45:01;2.10;;;0.87;;
20142;SDS011;10509;46.476;7.134;2023-09-18T10:47:29;1.20;;;0.60;;
20142;SDS011;10509;46.476;7.134;2023-09-18T10:49:56;1.57;;;0.80;;
20142;SDS011;10509;46.476;7.134;2023-09-18T10:52:22;1.20;;;0.80;;
20142;SDS011;10509;46.476;7.134;2023-09-18T10:54:48;1.90;;;0.90;;
20142;SDS011;10509;46.476;7.134;2023-09-18T10:57:14;2.07;;;1.10;;
20142;SDS011;10509;46.476;7.134;2023-09-18T10:59:47;1.10;;;0.70;;
20142;SDS011;10509;46.476;7.134;2023-09-18T11:02:13;0.63;;;0.50;;
20142;SDS011;10509;46.476;7.134;2023-09-18T11:04:41;0.97;;;0.50;;
20142;SDS011;10509;46.476;7.134;2023-09-18T11:07:07;1.37;;;0.50;;
20142;SDS011;10509;46.476;7.134;2023-09-18T11:09:43;1.33;;;0.80;;
20142;SDS011;10509;46.476;7.134;2023-09-18T11:12:10;1.90;;;0.60;;
20142;SDS011;10509;46.476;7.134;2023-09-18T11:20:06;6.33;;;3.20;;
20142;SDS011;10509;46.476;7.134;2023-09-18T11:22:45;2.77;;;1.30;;
20142;SDS011;10509;46.476;7.134;2023-09-18T11:28:24;1.87;;;1.27;;
20142;SDS011;10509;46.476;7.134;2023-09-18T11:30:51;3.07;;;1.03;;
20142;SDS011;10509;46.476;7.134;2023-09-18T11:33:35;1.23;;;0.70;;
20142;SDS011;10509;46.476;7.134;2023-09-18T11:36:04;1.40;;;0.93;;
20142;SDS011;10509;46.476;7.134;2023-09-18T11:38:31;4.90;;;2.70;;
20142;SDS011;10509;46.476;7.134;2023-09-18T11:40:59;2.33;;;1.10;;
20142;SDS011;10509;46.476;7.134;2023-09-18T11:43:27;1.40;;;0.90;;
20142;SDS011;10509;46.476;7.134;2023-09-18T11:46:00;1.63;;;0.70;;
20142;SDS011;10509;46.476;7.134;2023-09-18T11:48:29;2.00;;;1.00;;
20142;SDS011;10509;46.476;7.134;2023-09-18T11:50:59;0.93;;;0.60;;
20142;SDS011;10509;46.476;7.134;2023-09-18T11:53:29;1.30;;;0.70;;
20142;SDS011;10509;46.476;7.134;2023-09-18T11:55:59;1.43;;;0.73;;
20142;SDS011;10509;46.476;7.134;2023-09-18T11:58:25;0.77;;;0.50;;
20142;SDS011;10509;46.476;7.134;2023-09-18T12:00:51;2.70;;;1.30;;
20142;SDS011;10509;46.476;7.134;2023-09-18T12:03:20;1.43;;;0.50;;
20142;SDS011;10509;46.476;7.134;2023-09-18T12:05:56;0.90;;;0.60;;
20142;SDS011;10509;46.476;7.134;2023-09-18T12:08:23;1.43;;;0.60;;
20142;SDS011;10509;46.476;7.134;2023-09-18T12:10:53;1.07;;;0.63;;
20142;SDS011;10509;46.476;7.134;2023-09-18T12:13:19;3.87;;;0.60;;
20142;SDS011;10509;46.476;7.134;2023-09-18T12:15:46;0.80;;;0.57;;
20142;SDS011;10509;46.476;7.134;2023-09-18T12:18:13;1.57;;;0.63;;
20142;SDS011;10509;46.476;7.134;2023-09-18T12:20:46;2.50;;;0.60;;
20142;SDS011;10509;46.476;7.134;2023-09-18T12:23:13;1.53;;;0.67;;
20142;SDS011;10509;46.476;7.134;2023-09-18T12:25:39;2.57;;;0.53;;
20142;SDS011;10509;46.476;7.134;2023-09-18T12:28:06;1.57;;;0.60;;
20142;SDS011;10509;46.476;7.134;2023-09-18T12:30:32;0.80;;;0.60;;
20142;SDS011;10509;46.476;7.134;2023-09-18T12:32:59;1.27;;;0.60;;
20142;SDS011;10509;46.476;7.134;2023-09-18T12:35:25;0.80;;;0.60;;
20142;SDS011;10509;46.476;7.134;2023-09-18T12:37:54;0.67;;;0.50;;
20142;SDS011;10509;46.476;7.134;2023-09-18T12:40:21;1.30;;;0.60;;
20142;SDS011;10509;46.476;7.134;2023-09-18T12:42:47;1.17;;;0.70;;
20142;SDS011;10509;46.476;7.134;2023-09-18T12:45:14;1.13;;;0.60;;
20142;SDS011;10509;46.476;7.134;2023-09-18T12:47:40;2.00;;;0.70;;
20142;SDS011;10509;46.476;7.134;2023-09-18T12:50:06;1.63;;;0.90;;
20142;SDS011;10509;46.476;7.134;2023-09-18T12:52:35;1.63;;;0.60;;
20142;SDS011;10509;46.476;7.134;2023-09-18T12:55:01;1.00;;;0.60;;
20142;SDS011;10509;46.476;7.134;2023-09-18T12:57:30;0.90;;;0.60;;
20142;SDS011;10509;46.476;7.134;2023-09-18T12:59:57;1.53;;;0.63;;
20142;SDS011;10509;46.476;7.134;2023-09-18T13:02:23;1.47;;;0.80;;
20142;SDS011;10509;46.476;7.134;2023-09-18T13:04:56;1.67;;;0.70;;
20142;SDS011;10509;46.476;7.134;2023-09-18T13:07:24;3.03;;;2.83;;
20142;SDS011;10509;46.476;7.134;2023-09-18T13:10:03;1.67;;;0.70;;
20142;SDS011;10509;46.476;7.134;2023-09-18T13:12:46;1.80;;;0.80;;
20142;SDS011;10509;46.476;7.134;2023-09-18T13:15:14;1.67;;;0.70;;
20142;SDS011;10509;46.476;7.134;2023-09-18T13:17:40;2.23;;;0.80;;
20142;SDS011;10509;46.476;7.134;2023-09-18T13:20:13;1.23;;;0.70;;
20142;SDS011;10509;46.476;7.134;2023-09-18T13:22:40;1.93;;;0.80;;
20142;SDS011;10509;46.476;7.134;2023-09-18T13:25:09;1.40;;;0.77;;
20142;SDS011;10509;46.476;7.134;2023-09-18T13:27:36;1.60;;;0.93;;
20142;SDS011;10509;46.476;7.134;2023-09-18T13:30:02;2.67;;;1.63;;
20142;SDS011;10509;46.476;7.134;2023-09-18T13:32:33;1.33;;;0.80;;
20142;SDS011;10509;46.476;7.134;2023-09-18T13:34:59;1.00;;;0.60;;
20142;SDS011;10509;46.476;7.134;2023-09-18T13:37:25;0.97;;;0.60;;
20142;SDS011;10509;46.476;7.134;2023-09-18T13:39:52;0.90;;;0.60;;
20142;SDS011;10509;46.476;7.134;2023-09-18T13:42:18;1.90;;;0.70;;
20142;SDS011;10509;46.476;7.134;2023-09-18T13:44:44;3.80;;;1.20;;
20142;SDS011;10509;46.476;7.134;2023-09-18T13:47:12;2.27;;;0.80;;
20142;SDS011;10509;46.476;7.134;2023-09-18T13:49:38;1.53;;;0.60;;
20142;SDS011;10509;46.476;7.134;2023-09-18T13:52:04;2.27;;;1.20;;
20142;SDS011;10509;46.476;7.134;2023-09-18T13:54:30;1.77;;;0.90;;
20142;SDS011;10509;46.476;7.134;2023-09-18T13:56:56;1.73;;;0.80;;
20142;SDS011;10509;46.476;7.134;2023-09-18T13:59:22;1.40;;;0.60;;
20142;SDS011;10509;46.476;7.134;2023-09-18T14:01:48;1.43;;;0.70;;
20142;SDS011;10509;46.476;7.134;2023-09-18T14:04:14;1.17;;;0.67;;
20142;SDS011;10509;46.476;7.134;2023-09-18T14:06:40;2.73;;;0.80;;
20142;SDS011;10509;46.476;7.134;2023-09-18T14:09:07;0.93;;;0.70;;
20142;SDS011;10509;46.476;7.134;2023-09-18T14:11:35;2.07;;;0.70;;
20142;SDS011;10509;46.476;7.134;2023-09-18T14:14:03;0.90;;;0.60;;
20142;SDS011;10509;46.476;7.134;2023-09-18T14:16:29;1.97;;;0.73;;
20142;SDS011;10509;46.476;7.134;2023-09-18T14:18:58;2.23;;;1.10;;
20142;SDS011;10509;46.476;7.134;2023-09-18T14:21:24;1.07;;;0.60;;
20142;SDS011;10509;46.476;7.134;2023-09-18T14:23:53;1.50;;;0.63;;
20142;SDS011;10509;46.476;7.134;2023-09-18T14:26:19;1.67;;;0.70;;
20142;SDS011;10509;46.476;7.134;2023-09-18T14:28:45;1.87;;;0.93;;
20142;SDS011;10509;46.476;7.134;2023-09-18T14:31:11;2.00;;;0.63;;
20142;SDS011;10509;46.476;7.134;2023-09-18T14:33:37;1.60;;;0.70;;
20142;SDS011;10509;46.476;7.134;2023-09-18T14:36:05;1.00;;;0.67;;
20142;SDS011;10509;46.476;7.134;2023-09-18T14:38:31;2.13;;;0.70;;
20142;SDS011;10509;46.476;7.134;2023-09-18T14:40:57;1.13;;;0.60;;
20142;SDS011;10509;46.476;7.134;2023-09-18T14:43:27;1.20;;;0.60;;
20142;SDS011;10509;46.476;7.134;2023-09-18T14:45:53;1.50;;;0.50;;
20142;SDS011;10509;46.476;7.134;2023-09-18T14:48:22;1.97;;;0.60;;
20142;SDS011;10509;46.476;7.134;2023-09-18T14:50:54;0.83;;;0.60;;
20142;SDS011;10509;46.476;7.134;2023-09-18T14:53:20;1.47;;;0.60;;
20142;SDS011;10509;46.476;7.134;2023-09-18T14:55:46;2.10;;;0.80;;
20142;SDS011;10509;46.476;7.134;2023-09-18T14:58:13;1.90;;;1.30;;
20142;SDS011;10509;46.476;7.134;2023-09-18T15:00:39;1.27;;;0.70;;
20142;SDS011;10509;46.476;7.134;2023-09-18T15:03:06;1.33;;;0.90;;